createdAt,value
2023-05-03T00:00:48.474Z,8.13
2023-05-03T00:03:14.917Z,6.85
2023-05-03T00:05:41.472Z,8.07
2023-05-03T00:08:08.079Z,6.90
2023-05-03T00:10:34.535Z,7.05
2023-05-03T00:13:00.973Z,8.40
2023-05-03T00:15:27.596Z,6.78
2023-05-03T00:17:54.051Z,8.20
2023-05-03T00:20:20.663Z,7.43
2023-05-03T00:22:47.297Z,8.18
2023-05-03T00:25:15.163Z,7.07
2023-05-03T00:27:41.644Z,7.22
2023-05-03T00:30:09.516Z,7.55
2023-05-03T00:32:36.388Z,6.82
2023-05-03T00:35:02.819Z,7.90
2023-05-03T00:37:31.158Z,7.82
2023-05-03T00:39:57.537Z,7.20
2023-05-03T00:42:24.291Z,8.10
2023-05-03T00:44:51.218Z,7.55
2023-05-03T00:47:18.175Z,7.32
2023-05-03T00:49:44.684Z,7.07
2023-05-03T00:52:11.249Z,7.43
2023-05-03T00:54:38.049Z,7.93
2023-05-03T00:57:04.901Z,6.82
2023-05-03T00:59:33.088Z,7.28
2023-05-03T01:01:59.810Z,7.85
2023-05-03T01:04:26.770Z,7.55
2023-05-03T01:07:10.715Z,7.50
2023-05-03T01:09:51.134Z,8.05
2023-05-03T01:12:24.843Z,7.50
2023-05-03T01:15:12.162Z,7.18
2023-05-03T01:18:05.973Z,8.27
2023-05-03T01:20:34.610Z,6.88
2023-05-03T01:23:33.222Z,7.65
2023-05-03T01:25:59.655Z,8.15
2023-05-03T01:28:26.077Z,7.50
2023-05-03T01:30:53.443Z,7.70
2023-05-03T01:33:31.952Z,7.35
2023-05-03T01:36:26.968Z,8.73
2023-05-03T01:38:53.765Z,8.35
2023-05-03T01:41:21.223Z,7.60
2023-05-03T01:43:47.945Z,7.82
2023-05-03T01:46:15.754Z,9.48
2023-05-03T01:48:42.236Z,7.10
2023-05-03T01:51:08.948Z,8.32
2023-05-03T01:53:35.384Z,8.32
2023-05-03T01:56:01.806Z,8.27
2023-05-03T01:58:28.204Z,7.18
2023-05-03T02:00:54.870Z,7.53
2023-05-03T02:03:22.255Z,8.30
2023-05-03T02:05:48.761Z,7.65
2023-05-03T02:08:16.513Z,8.77
2023-05-03T02:10:45.969Z,7.65
2023-05-03T02:13:12.430Z,9.85
2023-05-03T02:15:38.832Z,8.07
2023-05-03T02:18:05.515Z,8.10
2023-05-03T02:20:36.456Z,7.97
2023-05-03T02:23:02.993Z,7.22
2023-05-03T02:25:29.858Z,9.88
2023-05-03T02:27:56.559Z,8.10
2023-05-03T02:30:23.051Z,7.32
2023-05-03T02:32:49.499Z,7.90
2023-05-03T02:35:16.220Z,8.43
2023-05-03T02:37:42.628Z,8.50
2023-05-03T02:40:11.913Z,8.27
2023-05-03T02:42:39.306Z,7.30
2023-05-03T02:45:06.566Z,7.47
2023-05-03T02:47:33.077Z,8.15
2023-05-03T02:49:59.540Z,7.55
2023-05-03T02:52:26.060Z,8.10
2023-05-03T02:54:52.512Z,7.90
2023-05-03T02:57:18.915Z,7.70
2023-05-03T02:59:45.501Z,9.00
2023-05-03T03:02:11.944Z,8.70
2023-05-03T03:04:38.345Z,8.10
2023-05-03T03:07:05.224Z,8.05
2023-05-03T03:09:31.622Z,7.75
2023-05-03T03:11:58.096Z,7.88
2023-05-03T03:14:24.492Z,7.93
2023-05-03T03:16:51.735Z,8.10
2023-05-03T03:19:18.210Z,8.07
2023-05-03T03:21:44.835Z,8.02
2023-05-03T03:24:11.404Z,12.98
2023-05-03T03:26:37.818Z,8.23
2023-05-03T03:29:04.223Z,7.95
2023-05-03T03:31:31.148Z,8.38
2023-05-03T03:33:57.594Z,8.00
2023-05-03T03:36:24.039Z,7.25
2023-05-03T03:38:50.418Z,8.35
2023-05-03T03:41:16.969Z,8.27
2023-05-03T03:43:43.492Z,7.95
2023-05-03T03:46:09.928Z,8.70
2023-05-03T03:48:36.379Z,8.05
2023-05-03T03:51:02.771Z,7.55
2023-05-03T03:53:29.138Z,8.25
2023-05-03T03:55:56.501Z,8.98
2023-05-03T03:58:22.912Z,7.97
2023-05-03T04:00:49.621Z,7.25
2023-05-03T04:03:16.622Z,7.43
2023-05-03T04:05:43.168Z,7.35
2023-05-03T04:08:09.611Z,7.40
2023-05-03T04:10:36.223Z,7.93
2023-05-03T04:13:03.105Z,7.43
2023-05-03T04:15:29.656Z,8.38
2023-05-03T04:17:56.264Z,7.57
2023-05-03T04:20:23.478Z,8.88
2023-05-03T04:22:49.937Z,7.88
2023-05-03T04:25:17.296Z,8.13
2023-05-03T04:27:45.401Z,8.48
2023-05-03T04:30:15.014Z,8.68
2023-05-03T04:32:42.896Z,8.57
2023-05-03T04:35:10.843Z,7.63
2023-05-03T04:37:37.984Z,8.55
2023-05-03T04:40:09.606Z,7.15
2023-05-03T04:42:38.920Z,7.38
2023-05-03T04:45:09.607Z,8.93
2023-05-03T04:47:36.918Z,8.13
2023-05-03T04:50:04.012Z,8.25
2023-05-03T04:52:30.821Z,7.32
2023-05-03T04:54:57.324Z,7.53
2023-05-03T04:57:23.783Z,6.20
2023-05-03T04:59:50.276Z,7.32
2023-05-03T05:02:16.829Z,9.88
2023-05-03T05:04:43.257Z,6.32
2023-05-03T05:07:09.712Z,7.22
2023-05-03T05:09:36.437Z,6.80
2023-05-03T05:12:04.037Z,7.13
2023-05-03T05:14:31.447Z,7.10
2023-05-03T05:16:58.326Z,8.88
2023-05-03T05:19:24.895Z,7.60
2023-05-03T05:21:52.110Z,5.80
2023-05-03T05:24:18.838Z,6.35
2023-05-03T05:26:45.516Z,6.63
2023-05-03T05:29:11.916Z,6.40
2023-05-03T05:31:38.389Z,6.75
2023-05-03T05:34:04.845Z,7.47
2023-05-03T05:36:31.444Z,9.25
2023-05-03T05:38:57.887Z,6.72
2023-05-03T05:41:24.309Z,7.00
2023-05-03T05:43:50.743Z,5.85
2023-05-03T05:46:17.306Z,8.30
2023-05-03T05:48:43.713Z,8.05
2023-05-03T05:51:10.105Z,8.15
2023-05-03T05:53:36.562Z,8.57
2023-05-03T05:56:03.038Z,5.68
2023-05-03T05:58:30.630Z,6.63
2023-05-03T06:01:03.741Z,7.13
2023-05-03T06:03:31.579Z,6.32
2023-05-03T06:05:58.057Z,6.10
2023-05-03T06:08:24.475Z,8.48
2023-05-03T06:10:53.128Z,5.82
2023-05-03T06:13:19.861Z,7.60
2023-05-03T06:15:46.291Z,6.82
2023-05-03T06:18:12.803Z,8.68
2023-05-03T06:20:39.688Z,7.03
2023-05-03T06:23:06.116Z,5.93
2023-05-03T06:25:32.701Z,7.78
2023-05-03T06:27:59.247Z,6.38
2023-05-03T06:30:25.826Z,6.32
2023-05-03T06:32:52.445Z,6.95
2023-05-03T06:35:19.682Z,7.93
2023-05-03T06:37:46.256Z,7.88
2023-05-03T06:40:12.761Z,5.55
2023-05-03T06:42:39.404Z,7.70
2023-05-03T06:45:06.457Z,6.38
2023-05-03T06:47:32.956Z,7.80
2023-05-03T06:49:59.370Z,7.88
2023-05-03T06:52:25.784Z,7.35
2023-05-03T06:54:53.454Z,9.48
2023-05-03T06:57:19.898Z,6.15
2023-05-03T06:59:46.352Z,5.80
2023-05-03T07:02:13.211Z,5.78
2023-05-03T07:04:40.000Z,5.68
2023-05-03T07:07:06.612Z,6.28
2023-05-03T07:09:42.592Z,6.07
2023-05-03T07:12:10.558Z,6.57
2023-05-03T07:14:36.996Z,8.05
2023-05-03T07:17:03.523Z,5.95
2023-05-03T07:19:30.523Z,6.07
2023-05-03T07:21:57.023Z,5.20
2023-05-03T07:24:25.722Z,7.47
2023-05-03T07:26:53.520Z,6.68
2023-05-03T07:29:20.565Z,7.97
2023-05-03T07:31:47.145Z,6.03
2023-05-03T07:34:13.589Z,8.23
2023-05-03T07:36:40.115Z,8.10
2023-05-03T07:39:07.310Z,6.97
2023-05-03T07:41:34.024Z,7.65
2023-05-03T07:44:00.536Z,6.00
2023-05-03T07:46:27.088Z,6.05
2023-05-03T07:48:53.583Z,6.30
2023-05-03T07:51:20.877Z,6.15
2023-05-03T07:53:47.340Z,5.63
2023-05-03T07:56:13.806Z,6.35
2023-05-03T07:58:41.081Z,5.93
2023-05-03T08:01:08.358Z,5.57
2023-05-03T08:03:35.059Z,7.88
2023-05-03T08:06:01.973Z,6.72
2023-05-03T08:08:28.417Z,6.95
2023-05-03T08:10:54.904Z,5.43
2023-05-03T08:13:22.555Z,8.02
2023-05-03T08:15:49.804Z,6.22
2023-05-03T08:18:16.433Z,6.25
2023-05-03T08:20:43.589Z,6.13
2023-05-03T08:23:11.213Z,7.10
2023-05-03T08:25:37.792Z,6.00
2023-05-03T08:28:04.511Z,5.93
2023-05-03T08:30:31.388Z,6.43
2023-05-03T08:32:57.983Z,6.72
2023-05-03T08:35:24.614Z,6.32
2023-05-03T08:37:51.064Z,6.43
2023-05-03T08:40:17.776Z,5.35
2023-05-03T08:42:45.631Z,6.38
2023-05-03T08:45:14.758Z,6.75
2023-05-03T08:47:45.174Z,7.20
2023-05-03T08:50:13.440Z,7.47
2023-05-03T08:52:42.526Z,5.75
2023-05-03T08:55:10.112Z,7.28
2023-05-03T08:57:36.996Z,7.82
2023-05-03T09:00:06.405Z,5.70
2023-05-03T09:02:39.016Z,6.22
2023-05-03T09:05:32.649Z,5.55
2023-05-03T09:08:07.625Z,6.20
2023-05-03T09:10:37.872Z,5.40
2023-05-03T09:13:04.334Z,6.82
2023-05-03T09:15:30.968Z,5.97
2023-05-03T09:18:09.290Z,7.78
2023-05-03T09:20:37.071Z,7.40
2023-05-03T09:23:03.626Z,6.03
2023-05-03T09:25:51.317Z,5.82
2023-05-03T09:28:19.990Z,6.13
2023-05-03T09:30:47.730Z,5.85
2023-05-03T09:33:22.376Z,4.90
2023-05-03T09:36:02.794Z,5.75
2023-05-03T09:38:38.684Z,6.30
2023-05-03T09:41:08.054Z,6.40
2023-05-03T09:43:35.802Z,5.63
2023-05-03T09:46:10.745Z,6.03
2023-05-03T09:48:38.230Z,5.38
2023-05-03T09:51:05.575Z,5.22
2023-05-03T09:53:32.646Z,5.10
2023-05-03T09:56:01.002Z,5.30
2023-05-03T09:58:30.835Z,4.75
2023-05-03T10:00:57.508Z,4.45
2023-05-03T10:03:42.130Z,4.82
2023-05-03T10:06:21.671Z,5.35
2023-05-03T10:08:52.451Z,4.38
2023-05-03T10:11:19.492Z,4.00
2023-05-03T10:13:46.265Z,6.63
2023-05-03T10:16:17.782Z,4.10
2023-05-03T10:18:49.397Z,4.88
2023-05-03T10:21:21.795Z,4.72
2023-05-03T10:24:12.632Z,4.63
2023-05-03T10:26:45.071Z,4.60
2023-05-03T10:29:34.674Z,5.30
2023-05-03T10:32:04.033Z,4.78
2023-05-03T10:34:32.495Z,5.43
2023-05-03T10:37:10.993Z,4.60
2023-05-03T10:39:37.685Z,4.63
2023-05-03T10:42:04.772Z,4.25
2023-05-03T10:44:53.355Z,4.40
2023-05-03T10:47:23.403Z,4.57
2023-05-03T10:50:11.822Z,4.25
2023-05-03T10:52:38.427Z,6.72
2023-05-03T10:55:12.629Z,3.80
2023-05-03T10:57:41.753Z,4.95
2023-05-03T11:00:22.213Z,4.85
2023-05-03T11:03:26.430Z,4.55
2023-05-03T11:05:54.007Z,5.32
2023-05-03T11:08:22.000Z,5.47
2023-05-03T11:10:51.335Z,5.05
2023-05-03T11:13:17.854Z,3.83
2023-05-03T11:15:45.359Z,4.43
2023-05-03T11:18:13.603Z,6.75
2023-05-03T11:20:40.413Z,7.55
2023-05-03T11:23:07.354Z,3.85
2023-05-03T11:25:34.191Z,6.75
2023-05-03T11:28:02.235Z,4.65
2023-05-03T11:30:29.526Z,3.83
2023-05-03T11:32:56.681Z,3.83
2023-05-03T11:35:27.865Z,4.00
2023-05-03T11:37:54.407Z,3.47
2023-05-03T11:40:21.413Z,6.93
2023-05-03T11:42:55.402Z,5.10
2023-05-03T11:45:45.928Z,4.00
2023-05-03T11:48:13.451Z,3.53
2023-05-03T11:50:55.410Z,4.32
2023-05-03T11:53:26.009Z,3.70
2023-05-03T11:55:53.938Z,4.50
2023-05-03T11:58:26.378Z,4.07
2023-05-03T12:00:57.077Z,3.85
2023-05-03T12:03:30.550Z,3.13
2023-05-03T12:05:59.043Z,3.42
2023-05-03T12:08:36.590Z,4.53
2023-05-03T12:11:06.884Z,3.40
2023-05-03T12:13:38.686Z,3.40
2023-05-03T12:16:12.563Z,3.63
2023-05-03T12:18:51.320Z,4.30
2023-05-03T12:23:50.550Z,4.80
2023-05-03T12:26:20.509Z,3.15
2023-05-03T12:28:48.379Z,3.65
2023-05-03T12:31:18.262Z,4.25
2023-05-03T12:33:58.526Z,3.70
2023-05-03T12:36:37.411Z,4.65
2023-05-03T12:39:08.673Z,2.95
2023-05-03T12:42:05.576Z,2.92
2023-05-03T12:44:23.847Z,3.33
2023-05-03T12:46:52.944Z,3.40
2023-05-03T12:49:22.877Z,4.00
2023-05-03T12:52:05.691Z,4.40
2023-05-03T12:54:39.608Z,3.38
2023-05-03T12:57:15.683Z,6.03
2023-05-03T12:59:43.483Z,3.45
2023-05-03T13:07:16.994Z,3.42
2023-05-03T13:12:33.525Z,2.95
2023-05-03T13:15:02.487Z,3.45
2023-05-03T13:17:31.128Z,3.53
2023-05-03T13:19:57.647Z,3.17
2023-05-03T13:22:24.148Z,3.30
2023-05-03T13:24:50.660Z,5.97
2023-05-03T13:27:18.001Z,3.70
2023-05-03T13:29:45.704Z,3.15
2023-05-03T13:32:14.085Z,2.78
2023-05-03T13:34:40.796Z,4.82
2023-05-03T13:37:07.303Z,2.90
2023-05-03T13:39:33.848Z,2.85
2023-05-03T13:42:00.387Z,11.80
2023-05-03T13:44:26.873Z,3.00
2023-05-03T13:46:53.613Z,5.35
2023-05-03T13:49:20.192Z,3.53
2023-05-03T13:51:46.719Z,4.32
2023-05-03T13:54:13.201Z,6.95
2023-05-03T13:56:41.485Z,4.47
2023-05-03T13:59:11.330Z,4.25
2023-05-03T14:01:38.240Z,3.53
2023-05-03T14:04:05.566Z,3.95
2023-05-03T14:06:33.669Z,3.90
2023-05-03T14:09:01.615Z,4.18
2023-05-03T14:11:29.734Z,3.92
2023-05-03T14:13:57.345Z,5.15
2023-05-03T14:16:39.392Z,4.47
2023-05-03T14:19:07.836Z,3.45
2023-05-03T14:21:34.465Z,3.45
2023-05-03T14:24:01.500Z,3.40
2023-05-03T14:26:29.346Z,4.72
2023-05-03T14:28:56.046Z,4.43
2023-05-03T14:31:22.617Z,3.42
2023-05-03T14:33:49.160Z,4.10
2023-05-03T14:36:15.861Z,5.10
2023-05-03T14:38:42.335Z,6.65
2023-05-03T14:41:09.298Z,3.97
2023-05-03T14:43:35.823Z,6.38
2023-05-03T14:46:02.244Z,5.25
2023-05-03T14:48:28.695Z,4.75
2023-05-03T14:50:56.427Z,4.88
2023-05-03T14:53:23.364Z,3.75
2023-05-03T14:55:50.094Z,4.53
2023-05-03T14:58:16.691Z,4.07
2023-05-03T15:00:43.514Z,3.85
2023-05-03T15:03:12.453Z,5.32
2023-05-03T15:05:50.038Z,5.00
2023-05-03T15:08:18.042Z,3.30
2023-05-03T15:10:44.988Z,12.48
2023-05-03T15:13:12.471Z,4.88
2023-05-03T15:15:39.410Z,4.85
2023-05-03T15:18:07.891Z,3.72
2023-05-03T15:20:34.907Z,3.35
2023-05-03T15:23:03.579Z,13.00
2023-05-03T15:25:30.348Z,4.13
2023-05-03T15:27:56.869Z,3.47
2023-05-03T15:30:23.345Z,3.70
2023-05-03T15:32:51.194Z,3.90
2023-05-03T15:35:18.098Z,3.88
2023-05-03T15:37:44.588Z,2.97
2023-05-03T15:40:12.525Z,4.00
2023-05-03T15:42:39.444Z,3.97
2023-05-03T15:45:07.573Z,2.78
2023-05-03T15:47:34.235Z,3.10
2023-05-03T15:50:01.938Z,3.00
2023-05-03T15:52:28.748Z,4.00
2023-05-03T15:54:56.193Z,3.10
2023-05-03T15:57:23.186Z,2.95
2023-05-03T15:59:49.603Z,2.78
2023-05-03T16:02:16.071Z,3.55
2023-05-03T16:04:42.743Z,2.70
2023-05-03T16:07:09.184Z,3.63
2023-05-03T16:09:35.936Z,4.10
2023-05-03T16:12:02.438Z,2.60
2023-05-03T16:14:28.973Z,3.42
2023-05-03T16:16:55.479Z,6.88
2023-05-03T16:19:22.292Z,2.85
2023-05-03T16:21:48.772Z,2.90
2023-05-03T16:24:15.247Z,3.42
2023-05-03T16:26:41.758Z,4.10
2023-05-03T16:29:08.324Z,2.80
2023-05-03T16:31:34.792Z,2.88
2023-05-03T16:34:01.868Z,2.72
2023-05-03T16:36:28.414Z,2.70
2023-05-03T16:38:54.798Z,3.80
2023-05-03T16:41:21.338Z,3.58
2023-05-03T16:43:47.825Z,3.67
2023-05-03T16:46:14.360Z,3.22
2023-05-03T16:48:41.311Z,3.15
2023-05-03T16:51:07.729Z,2.42
2023-05-03T16:53:34.221Z,3.17
2023-05-03T16:56:00.958Z,3.65
2023-05-03T16:58:27.429Z,2.60
2023-05-03T17:00:54.005Z,3.65
2023-05-03T17:03:20.627Z,3.88
2023-05-03T17:05:47.134Z,3.25
2023-05-03T17:08:13.705Z,2.97
2023-05-03T17:10:40.324Z,4.60
2023-05-03T17:13:09.555Z,4.53
2023-05-03T17:15:36.746Z,2.95
2023-05-03T17:18:04.930Z,3.15
2023-05-03T17:20:32.935Z,2.60
2023-05-03T17:22:59.432Z,3.17
2023-05-03T17:25:25.932Z,2.75
2023-05-03T17:27:52.910Z,4.55
2023-05-03T17:30:21.256Z,2.83
2023-05-03T17:32:48.097Z,4.32
2023-05-03T17:35:14.683Z,2.95
2023-05-03T17:37:41.127Z,2.47
2023-05-03T17:40:08.160Z,3.70
2023-05-03T17:42:35.034Z,2.72
2023-05-03T17:45:02.244Z,3.15
2023-05-03T17:47:29.397Z,2.65
2023-05-03T17:49:56.175Z,2.40
2023-05-03T17:52:22.912Z,2.95
2023-05-03T17:54:51.998Z,2.70
2023-05-03T17:57:20.543Z,2.65
2023-05-03T17:59:48.432Z,3.35
2023-05-03T18:02:14.858Z,2.85
2023-05-03T18:04:41.362Z,2.47
2023-05-03T18:07:07.913Z,3.40
2023-05-03T18:09:34.355Z,3.05
2023-05-03T18:12:03.536Z,2.72
2023-05-03T18:14:30.262Z,3.05
2023-05-03T18:16:56.732Z,2.95
2023-05-03T18:19:23.870Z,4.40
2023-05-03T18:21:50.417Z,3.42
2023-05-03T18:24:16.855Z,2.53
2023-05-03T18:26:43.348Z,3.60
2023-05-03T18:29:10.041Z,2.40
2023-05-03T18:31:36.798Z,2.17
2023-05-03T18:34:03.334Z,2.38
2023-05-03T18:36:30.051Z,2.63
2023-05-03T18:38:56.483Z,2.42
2023-05-03T18:41:23.025Z,2.40
2023-05-03T18:43:50.402Z,2.85
2023-05-03T18:46:18.556Z,5.05
2023-05-03T18:48:46.054Z,2.78
2023-05-03T18:51:12.594Z,2.75
2023-05-03T18:53:39.001Z,2.50
2023-05-03T18:56:05.634Z,3.25
2023-05-03T18:58:32.410Z,4.47
2023-05-03T19:01:00.359Z,2.58
2023-05-03T19:03:30.237Z,4.32
2023-05-03T19:06:00.682Z,2.85
2023-05-03T19:08:28.070Z,2.80
2023-05-03T19:10:54.515Z,2.78
2023-05-03T19:13:20.905Z,3.47
2023-05-03T19:15:47.402Z,3.53
2023-05-03T19:18:15.380Z,3.08
2023-05-03T19:20:43.202Z,2.67
2023-05-03T19:23:09.676Z,2.72
2023-05-03T19:25:36.252Z,3.35
2023-05-03T19:28:04.299Z,2.65
2023-05-03T19:30:30.885Z,2.50
2023-05-03T19:32:57.381Z,3.15
2023-05-03T19:35:23.977Z,2.67
2023-05-03T19:37:50.450Z,2.78
2023-05-03T19:40:16.975Z,2.67
2023-05-03T19:42:43.411Z,3.05
2023-05-03T19:45:10.156Z,3.38
2023-05-03T19:47:36.864Z,3.20
2023-05-03T19:50:03.639Z,3.50
2023-05-03T19:52:30.294Z,2.70
2023-05-03T19:54:57.726Z,3.00
2023-05-03T19:57:24.418Z,3.20
2023-05-03T19:59:50.852Z,3.30
2023-05-03T20:02:18.493Z,6.68
2023-05-03T20:04:45.026Z,3.10
2023-05-03T20:07:11.592Z,3.08
2023-05-03T20:09:38.003Z,2.85
2023-05-03T20:12:04.841Z,3.00
2023-05-03T20:14:32.386Z,3.85
2023-05-03T20:16:58.933Z,3.13
2023-05-03T20:19:25.716Z,3.25
2023-05-03T20:21:52.634Z,2.85
2023-05-03T20:24:20.396Z,3.40
2023-05-03T20:26:46.796Z,3.42
2023-05-03T20:29:13.233Z,2.95
2023-05-03T20:31:39.759Z,3.25
2023-05-03T20:34:06.224Z,2.70
2023-05-03T20:36:32.856Z,3.72
2023-05-03T20:38:59.425Z,4.15
2023-05-03T20:41:26.109Z,3.25
2023-05-03T20:43:54.749Z,3.20
2023-05-03T20:46:21.331Z,3.65
2023-05-03T20:48:47.927Z,3.10
2023-05-03T20:51:14.796Z,3.80
2023-05-03T20:53:41.345Z,3.08
2023-05-03T20:56:08.093Z,3.13
2023-05-03T20:58:34.686Z,3.47
2023-05-03T21:01:04.158Z,3.38
2023-05-03T21:03:31.510Z,3.50
2023-05-03T21:05:58.282Z,3.05
2023-05-03T21:08:24.767Z,2.90
2023-05-03T21:10:51.674Z,3.22
2023-05-03T21:13:18.254Z,3.10
2023-05-03T21:15:44.756Z,3.40
2023-05-03T21:18:11.286Z,4.20
2023-05-03T21:20:37.817Z,3.47
2023-05-03T21:23:05.367Z,3.65
2023-05-03T21:25:31.749Z,3.70
2023-05-03T21:27:58.265Z,3.70
2023-05-03T21:30:24.817Z,4.40
2023-05-03T21:32:51.341Z,4.47
2023-05-03T21:35:19.052Z,4.32
2023-05-03T21:37:47.207Z,3.80
2023-05-03T21:40:15.171Z,3.88
2023-05-03T21:42:42.745Z,3.60
2023-05-03T21:45:10.251Z,3.65
2023-05-03T21:47:36.940Z,4.10
2023-05-03T21:50:06.097Z,3.78
2023-05-03T21:52:33.616Z,3.65
2023-05-03T21:55:00.284Z,4.20
2023-05-03T21:57:26.665Z,3.28
2023-05-03T21:59:54.070Z,3.53
2023-05-03T22:02:21.704Z,4.63
2023-05-03T22:04:48.694Z,3.60
2023-05-03T22:07:15.404Z,3.70
2023-05-03T22:09:45.196Z,3.58
2023-05-03T22:12:22.364Z,4.43
2023-05-03T22:14:50.906Z,3.38
2023-05-03T22:17:17.346Z,4.03
2023-05-03T22:19:43.757Z,3.65
2023-05-03T22:22:10.454Z,3.50
2023-05-03T22:24:36.933Z,5.28
2023-05-03T22:27:04.132Z,3.55
2023-05-03T22:29:30.705Z,4.50
2023-05-03T22:31:57.286Z,3.45
2023-05-03T22:34:23.750Z,4.68
2023-05-03T22:36:50.224Z,3.00
2023-05-03T22:39:17.304Z,4.20
2023-05-03T22:41:44.103Z,3.58
2023-05-03T22:44:10.619Z,3.03
2023-05-03T22:46:37.051Z,4.97
2023-05-03T22:49:03.889Z,3.22
2023-05-03T22:51:31.163Z,3.58
2023-05-03T22:53:57.612Z,3.10
2023-05-03T22:56:24.083Z,2.78
2023-05-03T22:58:50.598Z,3.25
2023-05-03T23:01:17.108Z,3.15
2023-05-03T23:03:43.812Z,3.28
2023-05-03T23:06:10.741Z,4.72
2023-05-03T23:08:37.239Z,3.40
2023-05-03T23:11:03.875Z,3.53
2023-05-03T23:13:30.355Z,2.90
2023-05-03T23:15:57.014Z,3.22
2023-05-03T23:18:23.663Z,4.30
2023-05-03T23:20:50.164Z,6.82
2023-05-03T23:23:16.575Z,7.63
2023-05-03T23:25:43.131Z,6.63
2023-05-03T23:28:09.699Z,6.10
2023-05-03T23:30:36.889Z,5.00
2023-05-03T23:33:04.067Z,5.68
2023-05-03T23:35:31.037Z,5.43
2023-05-03T23:37:57.676Z,4.43
2023-05-03T23:40:24.252Z,6.60
2023-05-03T23:42:50.789Z,5.05
2023-05-03T23:45:17.219Z,5.55
2023-05-03T23:47:43.684Z,5.05
2023-05-03T23:50:10.380Z,5.40
2023-05-03T23:52:37.121Z,5.57
2023-05-03T23:55:07.073Z,5.25
2023-05-03T23:57:33.564Z,5.47
2023-05-03T23:59:59.956Z,4.93
